sensor_id;sensor_type;location;lat;lon;timestamp;temperature;humidity
14884;DHT22;7534;50.762;7.000;2023-04-16T00:00:48;9.30;99.90
14884;DHT22;7534;50.762;7.000;2023-04-16T00:03:14;9.20;99.90
14884;DHT22;7534;50.762;7.000;2023-04-16T00:05:40;9.20;99.90
14884;DHT22;7534;50.762;7.000;2023-04-16T00:08:06;9.10;99.90
14884;DHT22;7534;50.762;7.000;2023-04-16T00:10:33;9.10;99.90
14884;DHT22;7534;50.762;7.000;2023-04-16T00:12:59;9.20;99.90
14884;DHT22;7534;50.762;7.000;2023-04-16T00:15:25;9.20;99.90
14884;DHT22;7534;50.762;7.000;2023-04-16T00:17:51;9.30;99.90
14884;DHT22;7534;50.762;7.000;2023-04-16T00:20:16;9.30;99.90
14884;DHT22;7534;50.762;7.000;2023-04-16T00:22:44;9.20;99.90
14884;DHT22;7534;50.762;7.000;2023-04-16T00:25:10;9.20;99.90
14884;DHT22;7534;50.762;7.000;2023-04-16T00:27:35;9.30;99.90
14884;DHT22;7534;50.762;7.000;2023-04-16T00:30:01;9.30;99.90
14884;DHT22;7534;50.762;7.000;2023-04-16T00:32:27;9.30;99.90
14884;DHT22;7534;50.762;7.000;2023-04-16T00:34:54;9.30;99.90
14884;DHT22;7534;50.762;7.000;2023-04-16T00:37:20;9.30;99.90
14884;DHT22;7534;50.762;7.000;2023-04-16T00:39:45;9.30;99.90
14884;DHT22;7534;50.762;7.000;2023-04-16T00:42:11;9.30;99.90
14884;DHT22;7534;50.762;7.000;2023-04-16T00:44:37;9.30;99.90
14884;DHT22;7534;50.762;7.000;2023-04-16T00:47:03;9.20;99.90
14884;DHT22;7534;50.762;7.000;2023-04-16T00:49:29;9.30;99.90
14884;DHT22;7534;50.762;7.000;2023-04-16T00:51:55;9.20;99.90
14884;DHT22;7534;50.762;7.000;2023-04-16T00:54:23;9.30;99.90
14884;DHT22;7534;50.762;7.000;2023-04-16T00:56:50;9.30;99.90
14884;DHT22;7534;50.762;7.000;2023-04-16T00:59:16;9.30;99.90
14884;DHT22;7534;50.762;7.000;2023-04-16T01:01:42;9.20;99.90
14884;DHT22;7534;50.762;7.000;2023-04-16T01:04:08;9.20;99.90
14884;DHT22;7534;50.762;7.000;2023-04-16T01:06:33;9.20;99.90
14884;DHT22;7534;50.762;7.000;2023-04-16T01:08:59;9.20;99.90
14884;DHT22;7534;50.762;7.000;2023-04-16T01:11:25;9.20;99.90
14884;DHT22;7534;50.762;7.000;2023-04-16T01:13:50;9.30;99.90
14884;DHT22;7534;50.762;7.000;2023-04-16T01:16:16;9.20;99.90
14884;DHT22;7534;50.762;7.000;2023-04-16T01:18:42;9.30;99.90
14884;DHT22;7534;50.762;7.000;2023-04-16T01:21:07;9.40;99.90
14884;DHT22;7534;50.762;7.000;2023-04-16T01:23:33;9.40;99.90
14884;DHT22;7534;50.762;7.000;2023-04-16T01:26:01;9.30;99.90
14884;DHT22;7534;50.762;7.000;2023-04-16T01:28:27;9.30;99.90
14884;DHT22;7534;50.762;7.000;2023-04-16T01:30:53;9.40;99.90
14884;DHT22;7534;50.762;7.000;2023-04-16T01:33:20;9.30;99.90
14884;DHT22;7534;50.762;7.000;2023-04-16T01:35:46;9.30;99.90
14884;DHT22;7534;50.762;7.000;2023-04-16T01:38:11;9.30;99.90
14884;DHT22;7534;50.762;7.000;2023-04-16T01:40:37;9.20;99.90
14884;DHT22;7534;50.762;7.000;2023-04-16T01:43:06;9.10;99.90
14884;DHT22;7534;50.762;7.000;2023-04-16T01:45:32;9.10;99.90
14884;DHT22;7534;50.762;7.000;2023-04-16T01:48:00;9.20;99.90
14884;DHT22;7534;50.762;7.000;2023-04-16T01:50:26;9.20;99.90
14884;DHT22;7534;50.762;7.000;2023-04-16T01:52:53;9.30;99.90
14884;DHT22;7534;50.762;7.000;2023-04-16T01:55:19;9.30;99.90
14884;DHT22;7534;50.762;7.000;2023-04-16T01:57:45;9.20;99.90
14884;DHT22;7534;50.762;7.000;2023-04-16T02:00:11;9.30;99.90
14884;DHT22;7534;50.762;7.000;2023-04-16T02:02:37;9.40;99.90
14884;DHT22;7534;50.762;7.000;2023-04-16T02:05:04;9.30;99.90
14884;DHT22;7534;50.762;7.000;2023-04-16T02:07:30;9.30;99.90
14884;DHT22;7534;50.762;7.000;2023-04-16T02:09:56;9.30;99.90
14884;DHT22;7534;50.762;7.000;2023-04-16T02:12:22;9.30;99.90
14884;DHT22;7534;50.762;7.000;2023-04-16T02:14:48;9.20;99.90
14884;DHT22;7534;50.762;7.000;2023-04-16T02:17:14;9.20;99.90
14884;DHT22;7534;50.762;7.000;2023-04-16T02:19:40;9.30;99.90
14884;DHT22;7534;50.762;7.000;2023-04-16T02:22:06;9.30;99.90
14884;DHT22;7534;50.762;7.000;2023-04-16T02:24:31;9.40;99.90
14884;DHT22;7534;50.762;7.000;2023-04-16T02:26:57;9.40;99.90
14884;DHT22;7534;50.762;7.000;2023-04-16T02:29:23;9.50;99.90
14884;DHT22;7534;50.762;7.000;2023-04-16T02:31:48;9.40;99.90
14884;DHT22;7534;50.762;7.000;2023-04-16T02:34:15;9.40;99.90
14884;DHT22;7534;50.762;7.000;2023-04-16T02:36:40;9.30;99.90
14884;DHT22;7534;50.762;7.000;2023-04-16T02:39:06;9.30;99.90
14884;DHT22;7534;50.762;7.000;2023-04-16T02:41:32;9.40;99.90
14884;DHT22;7534;50.762;7.000;2023-04-16T02:43:58;9.50;99.90
14884;DHT22;7534;50.762;7.000;2023-04-16T02:46:23;9.50;99.90
14884;DHT22;7534;50.762;7.000;2023-04-16T02:48:49;9.50;99.90
14884;DHT22;7534;50.762;7.000;2023-04-16T02:51:15;9.50;99.90
14884;DHT22;7534;50.762;7.000;2023-04-16T02:53:40;9.40;99.90
14884;DHT22;7534;50.762;7.000;2023-04-16T02:56:11;9.40;99.90
14884;DHT22;7534;50.762;7.000;2023-04-16T02:58:37;9.30;99.90
14884;DHT22;7534;50.762;7.000;2023-04-16T03:01:03;9.20;99.90
14884;DHT22;7534;50.762;7.000;2023-04-16T03:03:29;9.20;99.90
14884;DHT22;7534;50.762;7.000;2023-04-16T03:05:55;9.20;99.90
14884;DHT22;7534;50.762;7.000;2023-04-16T03:08:21;9.20;99.90
14884;DHT22;7534;50.762;7.000;2023-04-16T03:10:47;9.10;99.90
14884;DHT22;7534;50.762;7.000;2023-04-16T03:13:12;9.20;99.90
14884;DHT22;7534;50.762;7.000;2023-04-16T03:15:38;9.20;99.90
14884;DHT22;7534;50.762;7.000;2023-04-16T03:18:04;9.20;99.90
14884;DHT22;7534;50.762;7.000;2023-04-16T03:20:30;9.10;99.90
14884;DHT22;7534;50.762;7.000;2023-04-16T03:22:55;9.20;99.90
14884;DHT22;7534;50.762;7.000;2023-04-16T03:25:21;9.20;99.90
14884;DHT22;7534;50.762;7.000;2023-04-16T03:27:47;9.20;99.90
14884;DHT22;7534;50.762;7.000;2023-04-16T03:30:13;9.10;99.90
14884;DHT22;7534;50.762;7.000;2023-04-16T03:32:39;9.10;99.90
14884;DHT22;7534;50.762;7.000;2023-04-16T03:35:06;9.10;99.90
14884;DHT22;7534;50.762;7.000;2023-04-16T03:37:33;9.00;99.90
14884;DHT22;7534;50.762;7.000;2023-04-16T03:39:59;9.20;99.90
14884;DHT22;7534;50.762;7.000;2023-04-16T03:42:25;9.20;99.90
14884;DHT22;7534;50.762;7.000;2023-04-16T03:44:51;9.20;99.90
14884;DHT22;7534;50.762;7.000;2023-04-16T03:47:18;9.30;99.90
14884;DHT22;7534;50.762;7.000;2023-04-16T03:49:47;9.30;99.90
14884;DHT22;7534;50.762;7.000;2023-04-16T03:52:13;9.40;99.90
14884;DHT22;7534;50.762;7.000;2023-04-16T03:54:39;9.30;99.90
14884;DHT22;7534;50.762;7.000;2023-04-16T03:57:04;9.30;99.90
14884;DHT22;7534;50.762;7.000;2023-04-16T03:59:30;9.30;99.90
14884;DHT22;7534;50.762;7.000;2023-04-16T04:01:56;9.20;99.90
14884;DHT22;7534;50.762;7.000;2023-04-16T04:04:21;9.10;99.90
14884;DHT22;7534;50.762;7.000;2023-04-16T04:06:47;9.20;99.90
14884;DHT22;7534;50.762;7.000;2023-04-16T04:09:13;9.20;99.90
14884;DHT22;7534;50.762;7.000;2023-04-16T04:11:43;9.20;99.90
14884;DHT22;7534;50.762;7.000;2023-04-16T04:14:08;9.20;99.90
14884;DHT22;7534;50.762;7.000;2023-04-16T04:16:34;9.30;99.90
14884;DHT22;7534;50.762;7.000;2023-04-16T04:19:00;9.20;99.90
14884;DHT22;7534;50.762;7.000;2023-04-16T04:21:26;9.20;99.90
14884;DHT22;7534;50.762;7.000;2023-04-16T04:23:53;9.10;99.90
14884;DHT22;7534;50.762;7.000;2023-04-16T04:26:18;9.20;99.90
14884;DHT22;7534;50.762;7.000;2023-04-16T04:28:45;9.20;99.90
14884;DHT22;7534;50.762;7.000;2023-04-16T04:31:11;9.30;99.90
14884;DHT22;7534;50.762;7.000;2023-04-16T04:33:37;9.30;99.90
14884;DHT22;7534;50.762;7.000;2023-04-16T04:36:03;9.20;99.90
14884;DHT22;7534;50.762;7.000;2023-04-16T04:38:29;9.30;99.90
14884;DHT22;7534;50.762;7.000;2023-04-16T04:40:56;9.30;99.90
14884;DHT22;7534;50.762;7.000;2023-04-16T04:43:22;9.30;99.90
14884;DHT22;7534;50.762;7.000;2023-04-16T04:45:51;9.20;99.90
14884;DHT22;7534;50.762;7.000;2023-04-16T04:48:17;9.30;99.90
14884;DHT22;7534;50.762;7.000;2023-04-16T04:50:43;9.30;99.90
14884;DHT22;7534;50.762;7.000;2023-04-16T04:53:10;9.30;99.90
14884;DHT22;7534;50.762;7.000;2023-04-16T04:55:36;9.30;99.90
14884;DHT22;7534;50.762;7.000;2023-04-16T04:58:04;9.20;99.90
14884;DHT22;7534;50.762;7.000;2023-04-16T05:00:34;9.30;99.90
14884;DHT22;7534;50.762;7.000;2023-04-16T05:03:03;9.30;99.90
14884;DHT22;7534;50.762;7.000;2023-04-16T05:05:30;9.20;99.90
14884;DHT22;7534;50.762;7.000;2023-04-16T05:07:56;9.30;99.90
14884;DHT22;7534;50.762;7.000;2023-04-16T05:10:22;9.20;99.90
14884;DHT22;7534;50.762;7.000;2023-04-16T05:12:47;9.20;99.90
14884;DHT22;7534;50.762;7.000;2023-04-16T05:15:13;9.30;99.90
14884;DHT22;7534;50.762;7.000;2023-04-16T05:17:39;9.20;99.90
14884;DHT22;7534;50.762;7.000;2023-04-16T05:20:06;9.20;99.90
14884;DHT22;7534;50.762;7.000;2023-04-16T05:22:34;9.10;99.90
14884;DHT22;7534;50.762;7.000;2023-04-16T05:25:00;9.20;99.90
14884;DHT22;7534;50.762;7.000;2023-04-16T05:27:28;9.30;99.90
14884;DHT22;7534;50.762;7.000;2023-04-16T05:29:53;9.40;99.90
14884;DHT22;7534;50.762;7.000;2023-04-16T05:32:19;9.30;99.90
14884;DHT22;7534;50.762;7.000;2023-04-16T05:34:45;9.40;99.90
14884;DHT22;7534;50.762;7.000;2023-04-16T05:37:10;9.40;99.90
14884;DHT22;7534;50.762;7.000;2023-04-16T05:39:36;9.30;99.90
14884;DHT22;7534;50.762;7.000;2023-04-16T05:42:02;9.40;99.90
14884;DHT22;7534;50.762;7.000;2023-04-16T05:44:27;9.30;99.90
14884;DHT22;7534;50.762;7.000;2023-04-16T05:46:53;9.40;99.90
14884;DHT22;7534;50.762;7.000;2023-04-16T05:49:19;9.50;99.90
14884;DHT22;7534;50.762;7.000;2023-04-16T05:51:45;9.50;99.90
14884;DHT22;7534;50.762;7.000;2023-04-16T05:54:11;9.50;99.90
14884;DHT22;7534;50.762;7.000;2023-04-16T05:56:37;9.50;99.90
14884;DHT22;7534;50.762;7.000;2023-04-16T05:59:02;9.40;99.90
14884;DHT22;7534;50.762;7.000;2023-04-16T06:01:28;9.50;99.90
14884;DHT22;7534;50.762;7.000;2023-04-16T06:03:54;9.60;99.90
14884;DHT22;7534;50.762;7.000;2023-04-16T06:06:19;9.70;99.90
14884;DHT22;7534;50.762;7.000;2023-04-16T06:08:45;9.70;99.90
14884;DHT22;7534;50.762;7.000;2023-04-16T06:11:11;9.70;99.90
14884;DHT22;7534;50.762;7.000;2023-04-16T06:13:37;9.70;99.90
14884;DHT22;7534;50.762;7.000;2023-04-16T06:16:03;9.70;99.90
14884;DHT22;7534;50.762;7.000;2023-04-16T06:18:29;9.70;99.90
14884;DHT22;7534;50.762;7.000;2023-04-16T06:20:55;9.70;99.90
14884;DHT22;7534;50.762;7.000;2023-04-16T06:23:23;9.70;99.90
14884;DHT22;7534;50.762;7.000;2023-04-16T06:25:48;9.70;99.90
14884;DHT22;7534;50.762;7.000;2023-04-16T06:28:14;9.80;99.90
14884;DHT22;7534;50.762;7.000;2023-04-16T06:30:41;9.90;99.90
14884;DHT22;7534;50.762;7.000;2023-04-16T06:33:06;9.90;99.90
14884;DHT22;7534;50.762;7.000;2023-04-16T06:35:32;9.80;99.90
14884;DHT22;7534;50.762;7.000;2023-04-16T06:37:58;9.70;99.90
14884;DHT22;7534;50.762;7.000;2023-04-16T06:40:23;9.70;99.90
14884;DHT22;7534;50.762;7.000;2023-04-16T06:42:49;9.70;99.90
14884;DHT22;7534;50.762;7.000;2023-04-16T06:45:15;9.70;99.90
14884;DHT22;7534;50.762;7.000;2023-04-16T06:47:41;9.80;99.90
14884;DHT22;7534;50.762;7.000;2023-04-16T06:50:06;9.70;99.90
14884;DHT22;7534;50.762;7.000;2023-04-16T06:52:32;9.80;99.90
14884;DHT22;7534;50.762;7.000;2023-04-16T06:54:58;9.90;99.90
14884;DHT22;7534;50.762;7.000;2023-04-16T06:57:24;9.80;99.90
14884;DHT22;7534;50.762;7.000;2023-04-16T06:59:49;9.80;99.90
14884;DHT22;7534;50.762;7.000;2023-04-16T07:02:15;9.80;99.90
14884;DHT22;7534;50.762;7.000;2023-04-16T07:04:41;9.80;99.90
14884;DHT22;7534;50.762;7.000;2023-04-16T07:07:07;9.70;99.90
14884;DHT22;7534;50.762;7.000;2023-04-16T07:09:33;9.80;99.90
14884;DHT22;7534;50.762;7.000;2023-04-16T07:11:58;9.70;99.90
14884;DHT22;7534;50.762;7.000;2023-04-16T07:14:24;9.60;99.90
14884;DHT22;7534;50.762;7.000;2023-04-16T07:16:50;9.70;99.90
14884;DHT22;7534;50.762;7.000;2023-04-16T07:19:15;9.70;99.90
14884;DHT22;7534;50.762;7.000;2023-04-16T07:21:42;9.70;99.90
14884;DHT22;7534;50.762;7.000;2023-04-16T07:24:10;9.70;99.90
14884;DHT22;7534;50.762;7.000;2023-04-16T07:26:36;9.80;99.90
14884;DHT22;7534;50.762;7.000;2023-04-16T07:29:02;9.70;99.90
14884;DHT22;7534;50.762;7.000;2023-04-16T07:31:27;9.70;99.90
14884;DHT22;7534;50.762;7.000;2023-04-16T07:33:54;9.80;99.90
14884;DHT22;7534;50.762;7.000;2023-04-16T07:36:20;9.80;99.90
14884;DHT22;7534;50.762;7.000;2023-04-16T07:38:45;9.90;99.90
14884;DHT22;7534;50.762;7.000;2023-04-16T07:41:12;9.70;99.90
14884;DHT22;7534;50.762;7.000;2023-04-16T07:43:38;9.80;99.90
14884;DHT22;7534;50.762;7.000;2023-04-16T07:46:03;9.80;99.90
14884;DHT22;7534;50.762;7.000;2023-04-16T07:48:29;9.90;99.90
14884;DHT22;7534;50.762;7.000;2023-04-16T07:50:55;9.90;99.90
14884;DHT22;7534;50.762;7.000;2023-04-16T07:53:20;9.90;99.90
14884;DHT22;7534;50.762;7.000;2023-04-16T07:55:47;10.00;99.90
14884;DHT22;7534;50.762;7.000;2023-04-16T07:58:13;10.10;99.90
14884;DHT22;7534;50.762;7.000;2023-04-16T08:00:38;10.00;99.90
14884;DHT22;7534;50.762;7.000;2023-04-16T08:03:05;10.00;99.90
14884;DHT22;7534;50.762;7.000;2023-04-16T08:05:31;10.00;99.90
14884;DHT22;7534;50.762;7.000;2023-04-16T08:07:56;10.00;99.90
14884;DHT22;7534;50.762;7.000;2023-04-16T08:10:22;10.00;99.90
14884;DHT22;7534;50.762;7.000;2023-04-16T08:12:48;10.10;99.90
14884;DHT22;7534;50.762;7.000;2023-04-16T08:15:13;10.10;99.90
14884;DHT22;7534;50.762;7.000;2023-04-16T08:17:39;10.20;99.90
14884;DHT22;7534;50.762;7.000;2023-04-16T08:20:05;10.20;99.90
14884;DHT22;7534;50.762;7.000;2023-04-16T08:22:32;10.20;99.90
14884;DHT22;7534;50.762;7.000;2023-04-16T08:24:58;10.30;99.90
14884;DHT22;7534;50.762;7.000;2023-04-16T08:27:23;10.40;99.90
14884;DHT22;7534;50.762;7.000;2023-04-16T08:29:49;10.50;99.90
14884;DHT22;7534;50.762;7.000;2023-04-16T08:32:15;10.60;99.90
14884;DHT22;7534;50.762;7.000;2023-04-16T08:34:41;10.70;99.90
14884;DHT22;7534;50.762;7.000;2023-04-16T08:37:07;10.60;99.90
14884;DHT22;7534;50.762;7.000;2023-04-16T08:39:32;10.50;99.90
14884;DHT22;7534;50.762;7.000;2023-04-16T08:41:59;10.70;99.90
14884;DHT22;7534;50.762;7.000;2023-04-16T08:44:33;10.60;99.90
14884;DHT22;7534;50.762;7.000;2023-04-16T08:47:02;10.60;99.90
14884;DHT22;7534;50.762;7.000;2023-04-16T08:49:35;10.60;99.90
14884;DHT22;7534;50.762;7.000;2023-04-16T08:52:05;10.60;99.90
14884;DHT22;7534;50.762;7.000;2023-04-16T08:57:10;10.70;99.90
14884;DHT22;7534;50.762;7.000;2023-04-16T08:59:45;10.80;99.90
14884;DHT22;7534;50.762;7.000;2023-04-16T09:02:12;11.00;99.90
14884;DHT22;7534;50.762;7.000;2023-04-16T09:04:40;11.20;99.90
14884;DHT22;7534;50.762;7.000;2023-04-16T09:07:07;11.30;99.90
14884;DHT22;7534;50.762;7.000;2023-04-16T09:09:34;11.30;99.90
14884;DHT22;7534;50.762;7.000;2023-04-16T09:12:00;11.40;99.90
14884;DHT22;7534;50.762;7.000;2023-04-16T09:14:26;11.40;99.90
14884;DHT22;7534;50.762;7.000;2023-04-16T09:16:52;11.50;99.90
14884;DHT22;7534;50.762;7.000;2023-04-16T09:19:22;11.70;99.90
14884;DHT22;7534;50.762;7.000;2023-04-16T09:21:48;11.60;99.90
14884;DHT22;7534;50.762;7.000;2023-04-16T09:24:14;11.60;99.90
14884;DHT22;7534;50.762;7.000;2023-04-16T09:26:41;11.60;99.90
14884;DHT22;7534;50.762;7.000;2023-04-16T09:29:08;11.60;99.90
14884;DHT22;7534;50.762;7.000;2023-04-16T09:31:34;11.40;99.90
14884;DHT22;7534;50.762;7.000;2023-04-16T09:34:02;11.40;99.90
14884;DHT22;7534;50.762;7.000;2023-04-16T09:36:30;11.50;99.90
14884;DHT22;7534;50.762;7.000;2023-04-16T09:38:57;11.50;99.90
14884;DHT22;7534;50.762;7.000;2023-04-16T09:41:31;11.50;99.90
14884;DHT22;7534;50.762;7.000;2023-04-16T09:44:01;11.60;99.90
14884;DHT22;7534;50.762;7.000;2023-04-16T09:46:34;11.60;99.90
14884;DHT22;7534;50.762;7.000;2023-04-16T09:49:19;11.70;99.90
14884;DHT22;7534;50.762;7.000;2023-04-16T09:51:47;11.70;99.90
14884;DHT22;7534;50.762;7.000;2023-04-16T09:54:15;11.90;99.90
14884;DHT22;7534;50.762;7.000;2023-04-16T09:56:42;12.20;99.90
14884;DHT22;7534;50.762;7.000;2023-04-16T09:59:20;12.50;99.90
14884;DHT22;7534;50.762;7.000;2023-04-16T10:01:47;12.70;99.90
14884;DHT22;7534;50.762;7.000;2023-04-16T10:04:14;12.90;99.90
14884;DHT22;7534;50.762;7.000;2023-04-16T10:06:40;13.10;99.90
14884;DHT22;7534;50.762;7.000;2023-04-16T10:09:07;13.20;99.90
14884;DHT22;7534;50.762;7.000;2023-04-16T10:11:36;13.10;99.90
14884;DHT22;7534;50.762;7.000;2023-04-16T10:14:03;13.20;99.90
14884;DHT22;7534;50.762;7.000;2023-04-16T10:16:30;13.20;99.90
14884;DHT22;7534;50.762;7.000;2023-04-16T10:18:57;13.20;99.90
14884;DHT22;7534;50.762;7.000;2023-04-16T10:21:23;13.10;99.90
14884;DHT22;7534;50.762;7.000;2023-04-16T10:23:50;13.00;99.90
14884;DHT22;7534;50.762;7.000;2023-04-16T10:26:17;13.00;99.90
14884;DHT22;7534;50.762;7.000;2023-04-16T10:28:44;13.10;99.90
14884;DHT22;7534;50.762;7.000;2023-04-16T10:31:10;13.20;99.90
14884;DHT22;7534;50.762;7.000;2023-04-16T10:33:40;13.20;99.90
14884;DHT22;7534;50.762;7.000;2023-04-16T10:36:26;13.30;99.90
14884;DHT22;7534;50.762;7.000;2023-04-16T10:38:58;13.40;99.90
14884;DHT22;7534;50.762;7.000;2023-04-16T10:41:25;13.60;99.90
14884;DHT22;7534;50.762;7.000;2023-04-16T10:43:51;13.60;99.90
14884;DHT22;7534;50.762;7.000;2023-04-16T10:46:31;13.60;99.90
14884;DHT22;7534;50.762;7.000;2023-04-16T10:49:10;13.50;99.90
14884;DHT22;7534;50.762;7.000;2023-04-16T10:51:40;13.40;99.90
14884;DHT22;7534;50.762;7.000;2023-04-16T10:56:39;13.30;99.90
14884;DHT22;7534;50.762;7.000;2023-04-16T10:59:06;13.70;99.90
14884;DHT22;7534;50.762;7.000;2023-04-16T11:01:41;13.90;99.90
14884;DHT22;7534;50.762;7.000;2023-04-16T11:09:56;14.10;99.90
14884;DHT22;7534;50.762;7.000;2023-04-16T11:12:38;14.20;99.90
14884;DHT22;7534;50.762;7.000;2023-04-16T11:15:13;14.10;99.90
14884;DHT22;7534;50.762;7.000;2023-04-16T11:17:44;14.00;99.90
14884;DHT22;7534;50.762;7.000;2023-04-16T11:20:23;14.20;99.90
14884;DHT22;7534;50.762;7.000;2023-04-16T11:22:54;14.70;99.90
14884;DHT22;7534;50.762;7.000;2023-04-16T11:25:25;15.00;99.60
14884;DHT22;7534;50.762;7.000;2023-04-16T11:27:52;15.10;99.30
14884;DHT22;7534;50.762;7.000;2023-04-16T11:30:31;15.10;99.30
14884;DHT22;7534;50.762;7.000;2023-04-16T11:33:00;15.30;99.20
14884;DHT22;7534;50.762;7.000;2023-04-16T11:35:27;15.10;99.10
14884;DHT22;7534;50.762;7.000;2023-04-16T11:37:56;15.40;98.90
14884;DHT22;7534;50.762;7.000;2023-04-16T11:40:23;15.40;98.40
14884;DHT22;7534;50.762;7.000;2023-04-16T11:42:50;15.20;98.20
14884;DHT22;7534;50.762;7.000;2023-04-16T11:45:17;15.10;98.80
14884;DHT22;7534;50.762;7.000;2023-04-16T11:47:49;15.00;98.70
14884;DHT22;7534;50.762;7.000;2023-04-16T11:52:54;15.20;98.30
14884;DHT22;7534;50.762;7.000;2023-04-16T11:55:24;15.70;97.30
14884;DHT22;7534;50.762;7.000;2023-04-16T11:57:50;15.90;97.10
14884;DHT22;7534;50.762;7.000;2023-04-16T12:00:16;16.30;96.80
14884;DHT22;7534;50.762;7.000;2023-04-16T12:03:01;16.70;95.70
14884;DHT22;7534;50.762;7.000;2023-04-16T12:08:07;16.70;94.90
14884;DHT22;7534;50.762;7.000;2023-04-16T12:10:53;16.30;95.30
14884;DHT22;7534;50.762;7.000;2023-04-16T12:13:22;15.70;96.10
14884;DHT22;7534;50.762;7.000;2023-04-16T12:15:49;15.40;96.70
14884;DHT22;7534;50.762;7.000;2023-04-16T12:18:20;15.20;97.70
14884;DHT22;7534;50.762;7.000;2023-04-16T12:20:49;15.00;97.60
14884;DHT22;7534;50.762;7.000;2023-04-16T12:23:26;15.10;97.60
14884;DHT22;7534;50.762;7.000;2023-04-16T12:25:57;15.00;97.80
14884;DHT22;7534;50.762;7.000;2023-04-16T12:28:34;14.90;98.30
14884;DHT22;7534;50.762;7.000;2023-04-16T12:31:03;15.10;98.30
14884;DHT22;7534;50.762;7.000;2023-04-16T12:33:29;15.30;97.70
14884;DHT22;7534;50.762;7.000;2023-04-16T12:35:55;15.70;97.40
14884;DHT22;7534;50.762;7.000;2023-04-16T12:38:21;15.90;96.80
14884;DHT22;7534;50.762;7.000;2023-04-16T12:40:47;16.10;96.60
14884;DHT22;7534;50.762;7.000;2023-04-16T12:43:13;16.00;96.30
14884;DHT22;7534;50.762;7.000;2023-04-16T12:45:39;15.60;96.10
14884;DHT22;7534;50.762;7.000;2023-04-16T12:48:05;15.50;96.90
14884;DHT22;7534;50.762;7.000;2023-04-16T12:50:31;15.60;96.80
14884;DHT22;7534;50.762;7.000;2023-04-16T12:52:57;15.90;97.00
14884;DHT22;7534;50.762;7.000;2023-04-16T12:55:24;16.30;96.50
14884;DHT22;7534;50.762;7.000;2023-04-16T12:57:50;16.70;95.90
14884;DHT22;7534;50.762;7.000;2023-04-16T13:00:20;16.80;95.90
14884;DHT22;7534;50.762;7.000;2023-04-16T13:02:46;16.80;95.20
14884;DHT22;7534;50.762;7.000;2023-04-16T13:05:12;16.50;94.90
14884;DHT22;7534;50.762;7.000;2023-04-16T13:07:41;16.20;95.70
14884;DHT22;7534;50.762;7.000;2023-04-16T13:10:07;16.30;96.40
14884;DHT22;7534;50.762;7.000;2023-04-16T13:12:34;16.50;95.20
14884;DHT22;7534;50.762;7.000;2023-04-16T13:15:00;16.80;94.40
14884;DHT22;7534;50.762;7.000;2023-04-16T13:17:26;16.90;94.60
14884;DHT22;7534;50.762;7.000;2023-04-16T13:19:52;17.50;94.40
14884;DHT22;7534;50.762;7.000;2023-04-16T13:22:17;18.20;93.50
14884;DHT22;7534;50.762;7.000;2023-04-16T13:24:43;18.60;92.10
14884;DHT22;7534;50.762;7.000;2023-04-16T13:27:09;18.60;91.80
14884;DHT22;7534;50.762;7.000;2023-04-16T13:29:35;18.80;91.70
14884;DHT22;7534;50.762;7.000;2023-04-16T13:32:02;18.80;91.10
14884;DHT22;7534;50.762;7.000;2023-04-16T13:34:28;18.30;91.90
14884;DHT22;7534;50.762;7.000;2023-04-16T13:36:54;17.90;91.70
14884;DHT22;7534;50.762;7.000;2023-04-16T13:39:19;17.60;92.10
14884;DHT22;7534;50.762;7.000;2023-04-16T13:41:45;17.10;92.50
14884;DHT22;7534;50.762;7.000;2023-04-16T13:44:13;17.00;93.00
14884;DHT22;7534;50.762;7.000;2023-04-16T13:46:39;16.90;93.50
14884;DHT22;7534;50.762;7.000;2023-04-16T13:49:07;16.70;92.90
14884;DHT22;7534;50.762;7.000;2023-04-16T13:51:33;16.70;93.40
14884;DHT22;7534;50.762;7.000;2023-04-16T13:53:59;16.80;93.50
14884;DHT22;7534;50.762;7.000;2023-04-16T13:56:25;17.10;93.30
14884;DHT22;7534;50.762;7.000;2023-04-16T13:58:51;16.90;92.60
14884;DHT22;7534;50.762;7.000;2023-04-16T14:01:17;17.10;92.70
14884;DHT22;7534;50.762;7.000;2023-04-16T14:03:43;17.10;92.20
14884;DHT22;7534;50.762;7.000;2023-04-16T14:06:08;17.20;92.10
14884;DHT22;7534;50.762;7.000;2023-04-16T14:08:34;17.10;92.50
14884;DHT22;7534;50.762;7.000;2023-04-16T14:11:00;16.70;92.50
14884;DHT22;7534;50.762;7.000;2023-04-16T14:13:26;16.50;92.90
14884;DHT22;7534;50.762;7.000;2023-04-16T14:15:56;16.30;93.20
14884;DHT22;7534;50.762;7.000;2023-04-16T14:18:21;16.30;93.90
14884;DHT22;7534;50.762;7.000;2023-04-16T14:20:47;16.30;94.40
14884;DHT22;7534;50.762;7.000;2023-04-16T14:23:14;16.50;93.70
14884;DHT22;7534;50.762;7.000;2023-04-16T14:25:39;16.60;93.70
14884;DHT22;7534;50.762;7.000;2023-04-16T14:28:05;16.70;94.20
14884;DHT22;7534;50.762;7.000;2023-04-16T14:30:31;16.70;93.00
14884;DHT22;7534;50.762;7.000;2023-04-16T14:32:57;16.70;92.90
14884;DHT22;7534;50.762;7.000;2023-04-16T14:35:23;16.60;93.20
14884;DHT22;7534;50.762;7.000;2023-04-16T14:37:49;16.50;93.30
14884;DHT22;7534;50.762;7.000;2023-04-16T14:40:15;16.50;93.20
14884;DHT22;7534;50.762;7.000;2023-04-16T14:42:41;16.40;93.60
14884;DHT22;7534;50.762;7.000;2023-04-16T14:45:07;16.30;93.70
14884;DHT22;7534;50.762;7.000;2023-04-16T14:47:34;16.30;93.80
14884;DHT22;7534;50.762;7.000;2023-04-16T14:50:02;16.10;93.60
14884;DHT22;7534;50.762;7.000;2023-04-16T14:52:31;15.90;94.00
14884;DHT22;7534;50.762;7.000;2023-04-16T14:54:57;15.70;93.70
14884;DHT22;7534;50.762;7.000;2023-04-16T14:57:23;15.50;93.90
14884;DHT22;7534;50.762;7.000;2023-04-16T14:59:49;15.10;94.40
14884;DHT22;7534;50.762;7.000;2023-04-16T15:02:15;15.10;94.80
14884;DHT22;7534;50.762;7.000;2023-04-16T15:04:41;15.10;94.70
14884;DHT22;7534;50.762;7.000;2023-04-16T15:07:06;15.20;94.10
14884;DHT22;7534;50.762;7.000;2023-04-16T15:09:33;15.20;94.30
14884;DHT22;7534;50.762;7.000;2023-04-16T15:11:59;15.40;94.60
14884;DHT22;7534;50.762;7.000;2023-04-16T15:14:25;15.40;94.80
14884;DHT22;7534;50.762;7.000;2023-04-16T15:16:52;15.50;94.30
14884;DHT22;7534;50.762;7.000;2023-04-16T15:19:18;15.60;94.30
14884;DHT22;7534;50.762;7.000;2023-04-16T15:21:43;15.70;93.80
14884;DHT22;7534;50.762;7.000;2023-04-16T15:24:10;15.80;93.30
14884;DHT22;7534;50.762;7.000;2023-04-16T15:26:36;15.80;93.00
14884;DHT22;7534;50.762;7.000;2023-04-16T15:29:02;15.80;93.10
14884;DHT22;7534;50.762;7.000;2023-04-16T15:31:27;15.90;92.90
14884;DHT22;7534;50.762;7.000;2023-04-16T15:33:53;16.30;92.90
14884;DHT22;7534;50.762;7.000;2023-04-16T15:36:20;16.60;92.70
14884;DHT22;7534;50.762;7.000;2023-04-16T15:38:46;16.80;91.60
14884;DHT22;7534;50.762;7.000;2023-04-16T15:41:12;17.00;91.60
14884;DHT22;7534;50.762;7.000;2023-04-16T15:43:37;17.10;91.70
14884;DHT22;7534;50.762;7.000;2023-04-16T15:46:03;17.20;90.90
14884;DHT22;7534;50.762;7.000;2023-04-16T15:48:29;17.20;90.60
14884;DHT22;7534;50.762;7.000;2023-04-16T15:50:56;17.10;90.60
14884;DHT22;7534;50.762;7.000;2023-04-16T15:53:22;17.10;90.80
14884;DHT22;7534;50.762;7.000;2023-04-16T15:55:48;17.10;90.60
14884;DHT22;7534;50.762;7.000;2023-04-16T15:58:18;17.10;90.40
14884;DHT22;7534;50.762;7.000;2023-04-16T16:00:46;17.00;90.80
14884;DHT22;7534;50.762;7.000;2023-04-16T16:03:15;16.80;91.20
14884;DHT22;7534;50.762;7.000;2023-04-16T16:05:47;16.70;92.20
14884;DHT22;7534;50.762;7.000;2023-04-16T16:08:15;16.50;92.40